sensor_id;sensor_type;location;lat;lon;timestamp;pressure;altitude;pressure_sealevel;temperature;humidity
80986;BME280;70451;51.226;6.412;2023-06-22T00:00:42;101183.31;;;19.65;69.88
80986;BME280;70451;51.226;6.412;2023-06-22T00:02:57;101191.81;;;19.68;68.84
80986;BME280;70451;51.226;6.412;2023-06-22T00:05:13;101195.94;;;19.61;69.05
80986;BME280;70451;51.226;6.412;2023-06-22T00:07:29;101189.44;;;19.54;69.93
80986;BME280;70451;51.226;6.412;2023-06-22T00:09:44;101187.03;;;19.62;69.59
80986;BME280;70451;51.226;6.412;2023-06-22T00:11:59;101181.03;;;19.49;69.33
80986;BME280;70451;51.226;6.412;2023-06-22T00:14:14;101186.22;;;19.50;69.88
80986;BME280;70451;51.226;6.412;2023-06-22T00:16:32;101184.25;;;19.41;69.35
80986;BME280;70451;51.226;6.412;2023-06-22T00:18:47;101182.00;;;19.48;70.17
80986;BME280;70451;51.226;6.412;2023-06-22T00:21:03;101171.56;;;19.46;69.82
80986;BME280;70451;51.226;6.412;2023-06-22T00:23:19;101186.31;;;19.38;69.81
80986;BME280;70451;51.226;6.412;2023-06-22T00:25:36;101186.44;;;19.36;69.76
80986;BME280;70451;51.226;6.412;2023-06-22T00:27:51;101182.34;;;19.43;69.56
80986;BME280;70451;51.226;6.412;2023-06-22T00:30:07;101172.72;;;19.42;70.12
80986;BME280;70451;51.226;6.412;2023-06-22T00:32:23;101175.13;;;19.45;70.56
80986;BME280;70451;51.226;6.412;2023-06-22T00:34:38;101179.09;;;19.40;70.15
80986;BME280;70451;51.226;6.412;2023-06-22T00:36:53;101178.28;;;19.28;70.63
80986;BME280;70451;51.226;6.412;2023-06-22T00:39:08;101176.94;;;19.34;70.86
80986;BME280;70451;51.226;6.412;2023-06-22T00:41:24;101172.97;;;19.28;70.25
80986;BME280;70451;51.226;6.412;2023-06-22T00:43:43;101180.53;;;19.33;70.62
80986;BME280;70451;51.226;6.412;2023-06-22T00:45:58;101177.31;;;19.29;70.88
80986;BME280;70451;51.226;6.412;2023-06-22T00:48:14;101182.38;;;19.21;70.93
80986;BME280;70451;51.226;6.412;2023-06-22T00:50:32;101181.19;;;19.25;71.41
80986;BME280;70451;51.226;6.412;2023-06-22T00:52:52;101172.13;;;19.28;71.52
80986;BME280;70451;51.226;6.412;2023-06-22T00:55:08;101170.34;;;19.28;71.43
80986;BME280;70451;51.226;6.412;2023-06-22T00:57:24;101172.25;;;19.26;71.81
80986;BME280;70451;51.226;6.412;2023-06-22T00:59:47;101173.25;;;19.25;71.21
80986;BME280;70451;51.226;6.412;2023-06-22T01:02:03;101172.75;;;19.31;71.88
80986;BME280;70451;51.226;6.412;2023-06-22T01:04:18;101167.56;;;19.30;71.25
80986;BME280;70451;51.226;6.412;2023-06-22T01:06:38;101167.19;;;19.34;72.06
80986;BME280;70451;51.226;6.412;2023-06-22T01:09:06;101163.72;;;19.34;71.79
80986;BME280;70451;51.226;6.412;2023-06-22T01:11:28;101166.84;;;19.39;72.13
80986;BME280;70451;51.226;6.412;2023-06-22T01:16:20;101150.81;;;19.40;72.28
80986;BME280;70451;51.226;6.412;2023-06-22T01:18:41;101149.75;;;19.43;72.17
80986;BME280;70451;51.226;6.412;2023-06-22T01:20:58;101151.44;;;19.44;72.29
80986;BME280;70451;51.226;6.412;2023-06-22T01:26:17;101146.25;;;19.42;72.36
80986;BME280;70451;51.226;6.412;2023-06-22T01:28:43;101134.84;;;19.42;72.55
80986;BME280;70451;51.226;6.412;2023-06-22T01:31:00;101142.03;;;19.40;72.74
80986;BME280;70451;51.226;6.412;2023-06-22T01:33:20;101144.84;;;19.38;73.07
80986;BME280;70451;51.226;6.412;2023-06-22T01:35:37;101142.19;;;19.27;72.91
80986;BME280;70451;51.226;6.412;2023-06-22T01:37:53;101143.16;;;19.26;73.59
80986;BME280;70451;51.226;6.412;2023-06-22T01:40:10;101146.91;;;19.24;73.55
80986;BME280;70451;51.226;6.412;2023-06-22T01:42:25;101140.31;;;19.18;74.02
80986;BME280;70451;51.226;6.412;2023-06-22T01:44:41;101135.72;;;19.20;73.82
80986;BME280;70451;51.226;6.412;2023-06-22T01:46:56;101134.41;;;19.14;74.21
80986;BME280;70451;51.226;6.412;2023-06-22T01:49:12;101139.69;;;19.14;73.84
80986;BME280;70451;51.226;6.412;2023-06-22T01:51:28;101132.81;;;19.12;74.34
80986;BME280;70451;51.226;6.412;2023-06-22T01:53:43;101142.44;;;19.13;74.38
80986;BME280;70451;51.226;6.412;2023-06-22T01:55:58;101135.25;;;19.15;74.29
80986;BME280;70451;51.226;6.412;2023-06-22T01:58:14;101139.69;;;19.14;74.68
80986;BME280;70451;51.226;6.412;2023-06-22T02:00:33;101134.03;;;19.19;74.59
80986;BME280;70451;51.226;6.412;2023-06-22T02:03:01;101136.66;;;19.19;74.51
80986;BME280;70451;51.226;6.412;2023-06-22T02:05:19;101136.31;;;19.24;74.70
80986;BME280;70451;51.226;6.412;2023-06-22T02:07:41;101135.47;;;19.23;74.36
80986;BME280;70451;51.226;6.412;2023-06-22T02:09:58;101140.88;;;19.22;74.41
80986;BME280;70451;51.226;6.412;2023-06-22T02:12:17;101130.69;;;19.17;74.80
80986;BME280;70451;51.226;6.412;2023-06-22T02:14:34;101124.28;;;19.20;75.11
80986;BME280;70451;51.226;6.412;2023-06-22T02:16:51;101124.91;;;19.23;75.02
80986;BME280;70451;51.226;6.412;2023-06-22T02:19:06;101127.66;;;19.22;75.05
80986;BME280;70451;51.226;6.412;2023-06-22T02:21:22;101126.81;;;19.21;75.43
80986;BME280;70451;51.226;6.412;2023-06-22T02:23:37;101126.22;;;19.17;75.51
80986;BME280;70451;51.226;6.412;2023-06-22T02:25:52;101115.75;;;19.16;75.58
80986;BME280;70451;51.226;6.412;2023-06-22T02:28:08;101117.34;;;19.07;75.89
80986;BME280;70451;51.226;6.412;2023-06-22T02:30:23;101117.09;;;19.10;75.62
80986;BME280;70451;51.226;6.412;2023-06-22T02:32:38;101112.28;;;19.04;75.80
80986;BME280;70451;51.226;6.412;2023-06-22T02:34:56;101110.97;;;18.99;75.69
80986;BME280;70451;51.226;6.412;2023-06-22T02:37:12;101119.84;;;18.98;76.06
80986;BME280;70451;51.226;6.412;2023-06-22T02:39:27;101113.25;;;18.92;76.26
80986;BME280;70451;51.226;6.412;2023-06-22T02:41:43;101106.16;;;18.93;75.98
80986;BME280;70451;51.226;6.412;2023-06-22T02:43:58;101113.72;;;18.97;76.33
80986;BME280;70451;51.226;6.412;2023-06-22T02:46:13;101109.66;;;18.93;76.54
80986;BME280;70451;51.226;6.412;2023-06-22T02:48:29;101101.59;;;18.95;76.19
80986;BME280;70451;51.226;6.412;2023-06-22T02:50:44;101106.16;;;18.93;76.25
80986;BME280;70451;51.226;6.412;2023-06-22T02:52:59;101113.38;;;18.91;76.09
80986;BME280;70451;51.226;6.412;2023-06-22T02:55:15;101112.66;;;18.89;76.29
80986;BME280;70451;51.226;6.412;2023-06-22T02:57:30;101115.53;;;18.86;76.50
80986;BME280;70451;51.226;6.412;2023-06-22T02:59:45;101108.22;;;18.89;76.17
80986;BME280;70451;51.226;6.412;2023-06-22T03:02:01;101106.66;;;18.87;76.39
80986;BME280;70451;51.226;6.412;2023-06-22T03:04:17;101102.81;;;18.80;76.16
80986;BME280;70451;51.226;6.412;2023-06-22T03:06:33;101101.84;;;18.81;76.40
80986;BME280;70451;51.226;6.412;2023-06-22T03:08:51;101093.66;;;18.84;76.40
80986;BME280;70451;51.226;6.412;2023-06-22T03:11:07;101090.06;;;18.85;76.38
80986;BME280;70451;51.226;6.412;2023-06-22T03:13:23;101086.34;;;18.87;76.43
80986;BME280;70451;51.226;6.412;2023-06-22T03:15:39;101085.38;;;18.88;76.67
80986;BME280;70451;51.226;6.412;2023-06-22T03:17:54;101082.97;;;18.85;76.69
80986;BME280;70451;51.226;6.412;2023-06-22T03:20:10;101081.66;;;18.80;77.07
80986;BME280;70451;51.226;6.412;2023-06-22T03:22:26;101076.25;;;18.81;76.63
80986;BME280;70451;51.226;6.412;2023-06-22T03:24:42;101068.06;;;18.84;76.99
80986;BME280;70451;51.226;6.412;2023-06-22T03:26:57;101066.03;;;18.88;76.89
80986;BME280;70451;51.226;6.412;2023-06-22T03:29:12;101054.72;;;18.86;76.44
80986;BME280;70451;51.226;6.412;2023-06-22T03:31:28;101053.66;;;18.88;77.26
80986;BME280;70451;51.226;6.412;2023-06-22T03:33:43;101058.47;;;18.94;76.80
80986;BME280;70451;51.226;6.412;2023-06-22T03:35:59;101051.03;;;18.88;77.55
80986;BME280;70451;51.226;6.412;2023-06-22T03:38:14;101058.56;;;18.93;77.23
80986;BME280;70451;51.226;6.412;2023-06-22T03:40:29;101051.38;;;18.95;76.98
80986;BME280;70451;51.226;6.412;2023-06-22T03:42:45;101047.16;;;18.92;77.09
80986;BME280;70451;51.226;6.412;2023-06-22T03:45:00;101045.00;;;18.86;77.46
80986;BME280;70451;51.226;6.412;2023-06-22T03:47:17;101046.81;;;18.97;77.20
80986;BME280;70451;51.226;6.412;2023-06-22T03:49:33;101045.19;;;19.05;76.98
80986;BME280;70451;51.226;6.412;2023-06-22T03:51:49;101049.66;;;19.05;77.06
80986;BME280;70451;51.226;6.412;2023-06-22T03:54:04;101054.25;;;19.03;77.11
80986;BME280;70451;51.226;6.412;2023-06-22T03:56:20;101064.78;;;19.14;76.86
80986;BME280;70451;51.226;6.412;2023-06-22T03:58:36;101060.22;;;19.16;76.83
80986;BME280;70451;51.226;6.412;2023-06-22T04:00:52;101058.75;;;19.23;76.64
80986;BME280;70451;51.226;6.412;2023-06-22T04:03:08;101056.56;;;19.28;76.85
80986;BME280;70451;51.226;6.412;2023-06-22T04:05:23;101060.06;;;19.29;76.67
80986;BME280;70451;51.226;6.412;2023-06-22T04:07:39;101057.41;;;19.29;75.49
80986;BME280;70451;51.226;6.412;2023-06-22T04:09:54;101064.13;;;19.33;76.50
80986;BME280;70451;51.226;6.412;2023-06-22T04:12:10;101059.50;;;19.25;76.29
80986;BME280;70451;51.226;6.412;2023-06-22T04:14:25;101058.53;;;19.15;76.18
80986;BME280;70451;51.226;6.412;2023-06-22T04:16:40;101062.13;;;19.25;76.32
80986;BME280;70451;51.226;6.412;2023-06-22T04:18:56;101056.47;;;19.30;76.77
80986;BME280;70451;51.226;6.412;2023-06-22T04:21:11;101067.03;;;19.30;77.04
80986;BME280;70451;51.226;6.412;2023-06-22T04:23:26;101064.28;;;19.31;77.15
80986;BME280;70451;51.226;6.412;2023-06-22T04:25:41;101063.66;;;19.28;77.09
80986;BME280;70451;51.226;6.412;2023-06-22T04:27:57;101054.38;;;19.33;76.87
80986;BME280;70451;51.226;6.412;2023-06-22T04:30:12;101052.38;;;19.26;76.79
80986;BME280;70451;51.226;6.412;2023-06-22T04:32:30;101062.25;;;19.24;76.88
80986;BME280;70451;51.226;6.412;2023-06-22T04:34:45;101051.41;;;19.27;75.85
80986;BME280;70451;51.226;6.412;2023-06-22T04:37:00;101052.75;;;19.32;76.40
80986;BME280;70451;51.226;6.412;2023-06-22T04:39:16;101047.06;;;19.37;76.82
80986;BME280;70451;51.226;6.412;2023-06-22T04:41:31;101053.06;;;19.39;76.68
80986;BME280;70451;51.226;6.412;2023-06-22T04:43:56;101045.53;;;19.23;76.41
80986;BME280;70451;51.226;6.412;2023-06-22T04:46:14;101043.56;;;19.36;77.10
80986;BME280;70451;51.226;6.412;2023-06-22T04:48:30;101053.44;;;19.34;77.25
80986;BME280;70451;51.226;6.412;2023-06-22T04:50:48;101048.63;;;19.39;76.92
80986;BME280;70451;51.226;6.412;2023-06-22T04:53:03;101051.72;;;19.44;76.82
80986;BME280;70451;51.226;6.412;2023-06-22T04:55:20;101054.50;;;19.43;77.15
80986;BME280;70451;51.226;6.412;2023-06-22T04:57:35;101050.53;;;19.48;77.08
80986;BME280;70451;51.226;6.412;2023-06-22T04:59:54;101047.88;;;19.48;77.19
80986;BME280;70451;51.226;6.412;2023-06-22T05:02:09;101046.19;;;19.47;77.33
80986;BME280;70451;51.226;6.412;2023-06-22T05:04:26;101042.72;;;19.47;77.22
80986;BME280;70451;51.226;6.412;2023-06-22T05:06:42;101040.28;;;19.55;77.61
80986;BME280;70451;51.226;6.412;2023-06-22T05:08:58;101042.84;;;19.34;76.69
80986;BME280;70451;51.226;6.412;2023-06-22T05:11:13;101048.75;;;19.38;77.67
80986;BME280;70451;51.226;6.412;2023-06-22T05:13:28;101042.81;;;19.45;77.76
80986;BME280;70451;51.226;6.412;2023-06-22T05:15:44;101047.41;;;19.43;77.99
80986;BME280;70451;51.226;6.412;2023-06-22T05:17:59;101048.25;;;19.44;78.44
80986;BME280;70451;51.226;6.412;2023-06-22T05:20:20;101046.78;;;19.40;78.08
80986;BME280;70451;51.226;6.412;2023-06-22T05:22:38;101053.06;;;19.50;78.15
80986;BME280;70451;51.226;6.412;2023-06-22T05:24:53;101058.44;;;19.60;78.37
80986;BME280;70451;51.226;6.412;2023-06-22T05:27:09;101054.56;;;19.64;78.41
80986;BME280;70451;51.226;6.412;2023-06-22T05:29:25;101054.78;;;19.72;78.38
80986;BME280;70451;51.226;6.412;2023-06-22T05:31:41;101056.47;;;19.73;77.45
80986;BME280;70451;51.226;6.412;2023-06-22T05:33:57;101061.63;;;19.74;77.27
80986;BME280;70451;51.226;6.412;2023-06-22T05:36:13;101061.97;;;19.81;77.77
80986;BME280;70451;51.226;6.412;2023-06-22T05:38:28;101068.41;;;19.88;77.65
80986;BME280;70451;51.226;6.412;2023-06-22T05:40:44;101074.88;;;19.95;77.55
80986;BME280;70451;51.226;6.412;2023-06-22T05:42:59;101073.00;;;19.86;76.00
80986;BME280;70451;51.226;6.412;2023-06-22T05:45:16;101059.97;;;19.94;76.20
80986;BME280;70451;51.226;6.412;2023-06-22T05:47:32;101065.38;;;19.92;76.23
80986;BME280;70451;51.226;6.412;2023-06-22T05:49:47;101064.50;;;20.03;76.11
80986;BME280;70451;51.226;6.412;2023-06-22T05:52:03;101052.97;;;20.14;76.27
80986;BME280;70451;51.226;6.412;2023-06-22T05:54:18;101058.88;;;20.17;76.78
80986;BME280;70451;51.226;6.412;2023-06-22T05:56:33;101057.38;;;20.24;76.89
80986;BME280;70451;51.226;6.412;2023-06-22T05:58:49;101054.78;;;20.13;76.74
80986;BME280;70451;51.226;6.412;2023-06-22T06:01:04;101058.88;;;20.17;77.01
80986;BME280;70451;51.226;6.412;2023-06-22T06:03:19;101067.81;;;20.26;76.65
80986;BME280;70451;51.226;6.412;2023-06-22T06:05:35;101063.50;;;20.25;76.85
80986;BME280;70451;51.226;6.412;2023-06-22T06:07:51;101066.53;;;20.20;76.59
80986;BME280;70451;51.226;6.412;2023-06-22T06:10:06;101064.59;;;20.22;76.92
80986;BME280;70451;51.226;6.412;2023-06-22T06:12:22;101068.13;;;20.32;77.32
80986;BME280;70451;51.226;6.412;2023-06-22T06:14:37;101061.53;;;20.38;76.93
80986;BME280;70451;51.226;6.412;2023-06-22T06:16:52;101064.50;;;20.45;77.07
80986;BME280;70451;51.226;6.412;2023-06-22T06:19:08;101053.41;;;20.40;75.72
80986;BME280;70451;51.226;6.412;2023-06-22T06:21:23;101062.50;;;20.37;76.30
80986;BME280;70451;51.226;6.412;2023-06-22T06:23:38;101064.72;;;20.42;75.53
80986;BME280;70451;51.226;6.412;2023-06-22T06:25:54;101066.59;;;20.51;75.40
80986;BME280;70451;51.226;6.412;2023-06-22T06:28:09;101057.09;;;20.48;75.48
80986;BME280;70451;51.226;6.412;2023-06-22T06:30:25;101059.41;;;20.62;75.22
80986;BME280;70451;51.226;6.412;2023-06-22T06:32:41;101058.66;;;20.51;73.51
80986;BME280;70451;51.226;6.412;2023-06-22T06:34:57;101053.72;;;20.46;73.10
80986;BME280;70451;51.226;6.412;2023-06-22T06:37:12;101050.72;;;20.60;73.77
80986;BME280;70451;51.226;6.412;2023-06-22T06:39:27;101051.50;;;20.42;73.04
80986;BME280;70451;51.226;6.412;2023-06-22T06:41:42;101053.38;;;20.60;74.35
80986;BME280;70451;51.226;6.412;2023-06-22T06:43:58;101042.28;;;20.76;73.52
80986;BME280;70451;51.226;6.412;2023-06-22T06:46:13;101044.81;;;20.78;72.69
80986;BME280;70451;51.226;6.412;2023-06-22T06:48:28;101039.94;;;20.83;72.84
80986;BME280;70451;51.226;6.412;2023-06-22T06:50:44;101040.22;;;20.89;73.13
80986;BME280;70451;51.226;6.412;2023-06-22T06:52:59;101055.47;;;20.97;72.88
80986;BME280;70451;51.226;6.412;2023-06-22T06:55:14;101054.47;;;20.88;73.50
80986;BME280;70451;51.226;6.412;2023-06-22T06:57:30;101056.00;;;20.81;72.63
80986;BME280;70451;51.226;6.412;2023-06-22T06:59:45;101054.03;;;20.83;73.36
80986;BME280;70451;51.226;6.412;2023-06-22T07:02:01;101060.84;;;20.76;73.30
80986;BME280;70451;51.226;6.412;2023-06-22T07:04:16;101060.81;;;20.66;73.58
80986;BME280;70451;51.226;6.412;2023-06-22T07:06:32;101056.38;;;20.46;73.29
80986;BME280;70451;51.226;6.412;2023-06-22T07:08:48;101048.19;;;20.49;74.49
80986;BME280;70451;51.226;6.412;2023-06-22T07:11:04;101051.31;;;20.33;74.64
80986;BME280;70451;51.226;6.412;2023-06-22T07:13:19;101048.91;;;20.30;75.80
80986;BME280;70451;51.226;6.412;2023-06-22T07:15:35;101047.69;;;20.14;75.80
80986;BME280;70451;51.226;6.412;2023-06-22T07:17:50;101043.75;;;20.08;77.37
80986;BME280;70451;51.226;6.412;2023-06-22T07:20:06;101039.09;;;20.01;78.61
80986;BME280;70451;51.226;6.412;2023-06-22T07:22:25;101028.44;;;19.91;79.92
80986;BME280;70451;51.226;6.412;2023-06-22T07:24:40;101027.59;;;19.90;80.37
80986;BME280;70451;51.226;6.412;2023-06-22T07:26:55;101024.41;;;19.76;79.39
80986;BME280;70451;51.226;6.412;2023-06-22T07:29:14;101020.69;;;19.78;82.00
80986;BME280;70451;51.226;6.412;2023-06-22T07:31:29;101023.41;;;19.67;82.03
80986;BME280;70451;51.226;6.412;2023-06-22T07:33:44;101024.94;;;19.70;82.50
80986;BME280;70451;51.226;6.412;2023-06-22T07:36:00;101009.78;;;19.72;83.19
80986;BME280;70451;51.226;6.412;2023-06-22T07:38:15;101011.56;;;19.71;83.33
80986;BME280;70451;51.226;6.412;2023-06-22T07:40:30;101003.56;;;19.82;83.96
80986;BME280;70451;51.226;6.412;2023-06-22T07:42:46;101011.00;;;19.88;84.21
80986;BME280;70451;51.226;6.412;2023-06-22T07:45:03;101011.97;;;19.67;83.53
80986;BME280;70451;51.226;6.412;2023-06-22T07:47:19;101000.03;;;19.72;84.41
80986;BME280;70451;51.226;6.412;2023-06-22T07:49:34;100983.88;;;19.96;83.74
80986;BME280;70451;51.226;6.412;2023-06-22T07:51:50;100982.16;;;20.16;83.10
80986;BME280;70451;51.226;6.412;2023-06-22T07:54:05;100970.09;;;20.63;82.20
80986;BME280;70451;51.226;6.412;2023-06-22T07:56:20;100965.88;;;21.10;82.34
80986;BME280;70451;51.226;6.412;2023-06-22T07:58:36;100956.53;;;21.25;79.68
80986;BME280;70451;51.226;6.412;2023-06-22T08:00:52;100960.72;;;21.57;79.18
80986;BME280;70451;51.226;6.412;2023-06-22T08:03:07;100947.91;;;21.23;74.37
80986;BME280;70451;51.226;6.412;2023-06-22T08:05:22;100943.41;;;21.43;75.22
80986;BME280;70451;51.226;6.412;2023-06-22T08:07:38;100951.38;;;21.53;77.34
80986;BME280;70451;51.226;6.412;2023-06-22T08:09:53;100949.41;;;21.45;74.82
80986;BME280;70451;51.226;6.412;2023-06-22T08:12:09;100939.06;;;21.42;75.38
80986;BME280;70451;51.226;6.412;2023-06-22T08:14:26;100946.16;;;21.61;75.83
80986;BME280;70451;51.226;6.412;2023-06-22T08:16:42;100946.47;;;21.48;75.12
80986;BME280;70451;51.226;6.412;2023-06-22T08:18:57;100947.56;;;21.55;76.06
80986;BME280;70451;51.226;6.412;2023-06-22T08:21:12;100949.81;;;21.40;75.03
80986;BME280;70451;51.226;6.412;2023-06-22T08:23:28;100941.88;;;21.50;76.34
80986;BME280;70451;51.226;6.412;2023-06-22T08:25:43;100947.16;;;21.40;76.08
80986;BME280;70451;51.226;6.412;2023-06-22T08:27:59;100946.59;;;21.46;75.77
80986;BME280;70451;51.226;6.412;2023-06-22T08:30:15;100938.94;;;21.43;74.68
80986;BME280;70451;51.226;6.412;2023-06-22T08:32:30;100945.06;;;21.63;75.52
80986;BME280;70451;51.226;6.412;2023-06-22T08:34:47;100934.16;;;21.47;75.56
80986;BME280;70451;51.226;6.412;2023-06-22T08:37:03;100925.53;;;21.35;73.94
80986;BME280;70451;51.226;6.412;2023-06-22T08:39:21;100931.34;;;21.68;75.63
80986;BME280;70451;51.226;6.412;2023-06-22T08:41:36;100930.44;;;21.96;75.78
80986;BME280;70451;51.226;6.412;2023-06-22T08:43:52;100919.72;;;21.88;73.00
80986;BME280;70451;51.226;6.412;2023-06-22T08:46:07;100917.41;;;22.03;74.51
80986;BME280;70451;51.226;6.412;2023-06-22T08:48:22;100927.63;;;22.07;72.59
80986;BME280;70451;51.226;6.412;2023-06-22T08:50:38;100913.13;;;22.02;73.41
80986;BME280;70451;51.226;6.412;2023-06-22T08:52:55;100909.66;;;22.46;72.73
80986;BME280;70451;51.226;6.412;2023-06-22T08:55:10;100912.50;;;22.90;72.03
80986;BME280;70451;51.226;6.412;2023-06-22T08:57:26;100911.63;;;23.42;72.18
80986;BME280;70451;51.226;6.412;2023-06-22T08:59:42;100912.53;;;23.33;68.93
80986;BME280;70451;51.226;6.412;2023-06-22T09:01:58;100920.13;;;23.46;70.54
80986;BME280;70451;51.226;6.412;2023-06-22T09:04:13;100909.88;;;23.77;66.68
80986;BME280;70451;51.226;6.412;2023-06-22T09:06:28;100910.03;;;24.01;70.57
80986;BME280;70451;51.226;6.412;2023-06-22T09:08:46;100912.53;;;24.29;67.19
80986;BME280;70451;51.226;6.412;2023-06-22T09:11:02;100905.50;;;24.86;65.77
80986;BME280;70451;51.226;6.412;2023-06-22T09:13:17;100910.09;;;24.59;64.59
80986;BME280;70451;51.226;6.412;2023-06-22T09:15:33;100905.94;;;24.15;67.33
80986;BME280;70451;51.226;6.412;2023-06-22T09:17:49;100910.56;;;24.47;65.94
80986;BME280;70451;51.226;6.412;2023-06-22T09:20:05;100913.50;;;24.78;64.61
80986;BME280;70451;51.226;6.412;2023-06-22T09:22:21;100905.88;;;24.99;65.54
80986;BME280;70451;51.226;6.412;2023-06-22T09:24:36;100901.69;;;24.96;64.03
80986;BME280;70451;51.226;6.412;2023-06-22T09:26:51;100905.03;;;24.90;65.19
80986;BME280;70451;51.226;6.412;2023-06-22T09:29:07;100895.44;;;24.64;65.67
80986;BME280;70451;51.226;6.412;2023-06-22T09:31:22;100891.94;;;24.55;64.70
80986;BME280;70451;51.226;6.412;2023-06-22T09:33:40;100875.00;;;25.13;65.54
80986;BME280;70451;51.226;6.412;2023-06-22T09:35:56;100884.88;;;25.28;63.76
80986;BME280;70451;51.226;6.412;2023-06-22T09:38:11;100889.69;;;24.92;64.89
80986;BME280;70451;51.226;6.412;2023-06-22T09:40:26;100867.16;;;25.27;64.88
80986;BME280;70451;51.226;6.412;2023-06-22T09:42:42;100868.31;;;25.09;64.36
80986;BME280;70451;51.226;6.412;2023-06-22T09:44:57;100862.31;;;25.63;64.83
80986;BME280;70451;51.226;6.412;2023-06-22T09:47:12;100851.66;;;25.94;62.56
80986;BME280;70451;51.226;6.412;2023-06-22T09:49:28;100849.09;;;25.70;62.01
80986;BME280;70451;51.226;6.412;2023-06-22T09:51:43;100844.44;;;25.64;61.46
80986;BME280;70451;51.226;6.412;2023-06-22T09:53:58;100854.94;;;24.76;62.91
80986;BME280;70451;51.226;6.412;2023-06-22T09:56:14;100851.47;;;25.16;63.69
80986;BME280;70451;51.226;6.412;2023-06-22T09:58:30;100850.09;;;25.45;61.88
80986;BME280;70451;51.226;6.412;2023-06-22T10:00:45;100859.34;;;24.93;62.67
80986;BME280;70451;51.226;6.412;2023-06-22T10:03:00;100855.09;;;24.67;63.29
80986;BME280;70451;51.226;6.412;2023-06-22T10:05:16;100858.16;;;25.12;63.44
80986;BME280;70451;51.226;6.412;2023-06-22T10:07:31;100859.75;;;24.73;62.92
80986;BME280;70451;51.226;6.412;2023-06-22T10:09:46;100854.50;;;24.97;62.88
80986;BME280;70451;51.226;6.412;2023-06-22T10:12:02;100862.81;;;25.34;63.85
80986;BME280;70451;51.226;6.412;2023-06-22T10:14:17;100858.84;;;25.06;63.65
80986;BME280;70451;51.226;6.412;2023-06-22T10:16:33;100869.00;;;25.19;63.02
80986;BME280;70451;51.226;6.412;2023-06-22T10:18:50;100873.63;;;24.84;63.06
80986;BME280;70451;51.226;6.412;2023-06-22T10:21:05;100873.25;;;24.55;63.57
80986;BME280;70451;51.226;6.412;2023-06-22T10:23:21;100882.78;;;24.57;63.10
80986;BME280;70451;51.226;6.412;2023-06-22T10:25:36;100895.06;;;24.42;63.42
80986;BME280;70451;51.226;6.412;2023-06-22T10:27:51;100905.34;;;24.37;64.86
80986;BME280;70451;51.226;6.412;2023-06-22T10:30:08;100912.00;;;24.25;66.81
80986;BME280;70451;51.226;6.412;2023-06-22T10:32:24;100921.97;;;24.23;64.78
80986;BME280;70451;51.226;6.412;2023-06-22T10:34:39;100921.94;;;23.89;66.71
80986;BME280;70451;51.226;6.412;2023-06-22T10:36:54;100929.50;;;24.02;67.44
80986;BME280;70451;51.226;6.412;2023-06-22T10:39:10;100916.84;;;24.04;68.92
80986;BME280;70451;51.226;6.412;2023-06-22T10:41:25;100924.56;;;23.81;70.62
80986;BME280;70451;51.226;6.412;2023-06-22T10:43:40;100920.19;;;23.72;71.83
80986;BME280;70451;51.226;6.412;2023-06-22T10:45:56;100921.91;;;23.37;71.13
80986;BME280;70451;51.226;6.412;2023-06-22T10:48:11;100929.06;;;23.37;74.34
80986;BME280;70451;51.226;6.412;2023-06-22T10:50:26;100926.94;;;23.23;76.43
80986;BME280;70451;51.226;6.412;2023-06-22T10:52:42;100929.22;;;23.00;74.64
80986;BME280;70451;51.226;6.412;2023-06-22T10:54:57;100931.50;;;22.77;76.34
80986;BME280;70451;51.226;6.412;2023-06-22T10:57:13;100938.25;;;22.62;78.71
80986;BME280;70451;51.226;6.412;2023-06-22T10:59:29;100943.22;;;22.30;79.92
80986;BME280;70451;51.226;6.412;2023-06-22T11:01:44;100943.31;;;22.01;80.48
80986;BME280;70451;51.226;6.412;2023-06-22T11:03:59;100944.41;;;21.88;83.84
80986;BME280;70451;51.226;6.412;2023-06-22T11:06:15;100942.50;;;21.81;86.16
80986;BME280;70451;51.226;6.412;2023-06-22T11:08:30;100940.66;;;21.81;88.25
80986;BME280;70451;51.226;6.412;2023-06-22T11:10:45;100942.47;;;21.91;89.35
80986;BME280;70451;51.226;6.412;2023-06-22T11:13:01;100938.66;;;21.37;88.85
80986;BME280;70451;51.226;6.412;2023-06-22T11:15:17;100926.19;;;21.57;90.17
80986;BME280;70451;51.226;6.412;2023-06-22T11:17:33;100914.81;;;21.83;90.50
80986;BME280;70451;51.226;6.412;2023-06-22T11:19:48;100912.13;;;21.93;90.33
80986;BME280;70451;51.226;6.412;2023-06-22T11:22:03;100897.59;;;21.97;90.38
80986;BME280;70451;51.226;6.412;2023-06-22T11:24:19;100871.94;;;21.69;89.21
80986;BME280;70451;51.226;6.412;2023-06-22T11:26:34;100867.13;;;21.45;89.42
80986;BME280;70451;51.226;6.412;2023-06-22T11:28:50;100850.78;;;21.11;89.02
80986;BME280;70451;51.226;6.412;2023-06-22T11:31:05;100835.75;;;21.31;90.22
80986;BME280;70451;51.226;6.412;2023-06-22T11:33:22;100820.84;;;21.57;90.87
80986;BME280;70451;51.226;6.412;2023-06-22T11:35:37;100816.97;;;21.52;90.42
80986;BME280;70451;51.226;6.412;2023-06-22T11:37:52;100811.56;;;21.15;88.11
80986;BME280;70451;51.226;6.412;2023-06-22T11:40:08;100802.22;;;21.20;88.75
80986;BME280;70451;51.226;6.412;2023-06-22T11:42:24;100816.00;;;21.43;89.68
80986;BME280;70451;51.226;6.412;2023-06-22T11:44:40;100818.78;;;21.51;89.39
80986;BME280;70451;51.226;6.412;2023-06-22T11:46:55;100815.03;;;21.34;88.52
80986;BME280;70451;51.226;6.412;2023-06-22T11:49:10;100818.72;;;21.24;87.83
80986;BME280;70451;51.226;6.412;2023-06-22T11:51:26;100813.38;;;21.33;88.46
80986;BME280;70451;51.226;6.412;2023-06-22T11:53:41;100806.53;;;21.31;87.76
80986;BME280;70451;51.226;6.412;2023-06-22T11:55:56;100812.69;;;21.68;89.08